Time;durP1;ratioP1;P1;durP2;ratioP2;P2;SDS_P1;SDS_P2;PMS_P1;PMS_P2;Temp;Humidity;BMP_temperature;BMP_pressure;BME280_temperature;BME280_humidity;BME280_pressure;Samples;Min_cycle;Max_cycle;Signal;HPM_P1;HPM_P2
2022/07/04 00:02:24;;;;;;;7.60;5.10;;;;;;;18.09;71.67;101391.56;5058696;28;20180;-66
2022/07/04 00:04:49;;;;;;;9.67;5.60;;;;;;;18.26;71.50;101393.13;5058309;28;20173;-66
2022/07/04 00:07:15;;;;;;;6.10;5.50;;;;;;;18.05;72.07;101388.97;5058153;28;20209;-67
2022/07/04 00:09:40;;;;;;;8.87;5.47;;;;;;;17.90;72.32;101388.22;5058788;28;20539;-67
2022/07/04 00:12:06;;;;;;;10.80;6.47;;;;;;;18.07;71.64;101387.19;5058392;28;20195;-66
2022/07/04 00:14:31;;;;;;;5.80;5.13;;;;;;;17.87;72.58;101392.66;5058096;28;20217;-67
2022/07/04 00:16:56;;;;;;;5.63;5.07;;;;;;;18.15;71.49;101382.72;5058278;28;20248;-67
2022/07/04 00:19:22;;;;;;;6.97;5.53;;;;;;;17.98;72.15;101388.16;5058355;28;20483;-66
2022/07/04 00:21:47;;;;;;;6.53;5.93;;;;;;;17.84;72.69;101386.50;5058268;28;20177;-65
2022/07/04 00:24:13;;;;;;;8.93;5.57;;;;;;;17.64;72.84;101385.84;5058115;28;20256;-66
2022/07/04 00:26:38;;;;;;;11.07;6.60;;;;;;;17.72;73.29;101389.28;5058070;28;20197;-66
2022/07/04 00:29:07;;;;;;;9.37;6.57;;;;;;;17.90;72.55;101372.41;5058652;28;20175;-66
2022/07/04 00:31:32;;;;;;;10.40;6.63;;;;;;;17.89;72.71;101364.47;5058638;28;20457;-66
2022/07/04 00:33:57;;;;;;;7.47;6.47;;;;;;;17.96;72.28;101366.22;5057473;28;20409;-66
2022/07/04 00:36:23;;;;;;;7.20;6.50;;;;;;;17.72;72.87;101369.94;5058406;28;20180;-66
2022/07/04 00:38:48;;;;;;;8.70;6.97;;;;;;;17.58;73.57;101370.94;5057379;28;20486;-66
2022/07/04 00:41:14;;;;;;;12.37;7.33;;;;;;;17.47;73.87;101373.69;5058003;28;20173;-66
2022/07/04 00:43:39;;;;;;;8.17;7.37;;;;;;;17.58;74.34;101378.00;5058216;28;20447;-65
2022/07/04 00:46:07;;;;;;;7.50;6.70;;;;;;;17.61;73.58;101384.09;5057887;28;20227;-66
2022/07/04 00:48:33;;;;;;;10.77;7.60;;;;;;;17.66;73.53;101376.16;5057337;28;20205;-65
2022/07/04 00:50:58;;;;;;;8.40;7.50;;;;;;;17.49;74.44;101384.22;5058405;28;20395;-66
2022/07/04 00:53:24;;;;;;;10.50;7.87;;;;;;;17.56;74.66;101379.75;5056965;28;20212;-65
2022/07/04 00:55:50;;;;;;;9.83;7.80;;;;;;;17.65;74.15;101384.94;5057180;28;20185;-65
2022/07/04 00:58:19;;;;;;;9.30;8.27;;;;;;;17.63;74.21;101381.44;5058222;28;20208;-66
2022/07/04 01:00:44;;;;;;;12.30;9.00;;;;;;;17.57;73.83;101378.88;5057805;28;20621;-67
2022/07/04 01:03:09;;;;;;;13.90;8.83;;;;;;;17.55;74.13;101385.91;5057667;28;20455;-66
2022/07/04 01:05:35;;;;;;;9.67;8.53;;;;;;;17.48;74.43;101377.19;5058181;28;20165;-65
2022/07/04 01:08:01;;;;;;;9.33;8.40;;;;;;;17.70;73.73;101380.50;5057509;28;20205;-66
2022/07/04 01:10:26;;;;;;;8.87;8.00;;;;;;;17.36;74.96;101386.09;5057876;28;20174;-66
2022/07/04 01:12:52;;;;;;;10.73;9.10;;;;;;;17.48;74.52;101382.47;5058164;28;20174;-67
2022/07/04 01:15:17;;;;;;;9.33;8.33;;;;;;;17.53;74.64;101387.69;5056851;28;20608;-66
2022/07/04 01:17:42;;;;;;;12.40;8.40;;;;;;;17.51;74.20;101379.81;5057620;28;20224;-67
2022/07/04 01:20:12;;;;;;;15.23;9.47;;;;;;;17.55;74.45;101385.91;5057890;28;20197;-67
2022/07/04 01:22:38;;;;;;;11.57;9.57;;;;;;;17.47;74.02;101386.88;5056842;28;20562;-66
2022/07/04 01:25:03;;;;;;;12.13;10.83;;;;;;;17.56;74.06;101383.25;5057423;28;20386;-66
2022/07/04 01:27:29;;;;;;;12.40;10.00;;;;;;;17.30;75.00;101389.63;5058295;28;20544;-66
2022/07/04 01:29:54;;;;;;;10.50;9.50;;;;;;;17.33;74.88;101392.25;5057658;28;20192;-67
2022/07/04 01:32:20;;;;;;;11.63;10.50;;;;;;;17.63;74.04;101389.34;5057450;28;20231;-66
2022/07/04 01:34:45;;;;;;;15.03;10.40;;;;;;;17.32;74.91;101392.28;5057635;28;20510;-66
2022/07/04 01:37:11;;;;;;;14.07;12.50;;;;;;;17.16;75.79;101395.00;5057454;28;20197;-66
2022/07/04 01:39:36;;;;;;;12.90;11.60;;;;;;;17.29;75.24;101393.16;5057622;28;20177;-66
2022/07/04 01:42:02;;;;;;;11.80;10.57;;;;;;;17.36;75.47;101391.38;5057884;28;20248;-67
2022/07/04 01:44:27;;;;;;;13.90;11.50;;;;;;;17.46;74.95;101386.88;5057367;28;20570;-65
2022/07/04 01:46:52;;;;;;;12.63;11.47;;;;;;;17.55;74.79;101386.81;5057556;28;20483;-66
2022/07/04 01:49:18;;;;;;;12.80;11.60;;;;;;;17.18;75.52;101392.34;5058640;28;20261;-65
2022/07/04 01:51:47;;;;;;;12.60;11.43;;;;;;;17.37;75.56;101400.13;5060945;28;20182;-64
2022/07/04 01:54:13;;;;;;;13.60;12.20;;;;;;;17.26;75.74;101393.16;5060765;28;20216;-64
2022/07/04 01:56:39;;;;;;;12.70;11.40;;;;;;;17.38;75.53;101389.56;5061360;28;20383;-65
2022/07/04 01:59:05;;;;;;;14.17;12.77;;;;;;;17.44;74.80;101396.56;5060921;28;20170;-67
2022/07/04 02:01:30;;;;;;;14.13;12.57;;;;;;;17.24;75.56;101409.88;5060924;28;20423;-66
2022/07/04 02:04:00;;;;;;;15.03;12.83;;;;;;;17.11;76.42;101412.59;5060972;28;20257;-66
2022/07/04 02:06:25;;;;;;;16.67;14.80;;;;;;;17.12;76.61;101411.72;5060755;28;20178;-66
2022/07/04 02:14:19;;;;;;;16.60;15.10;;;;;;;17.23;76.55;101401.09;5060531;28;20445;-67
2022/07/04 02:16:45;;;;;;;17.87;15.00;;;;;;;17.40;75.92;101402.72;5060321;28;20387;-67
2022/07/04 02:19:10;;;;;;;17.70;15.43;;;;;;;17.37;75.78;101402.78;5060479;28;20178;-67
2022/07/04 02:21:36;;;;;;;15.10;13.70;;;;;;;17.67;74.66;101397.22;5061125;28;20170;-66
2022/07/04 02:24:01;;;;;;;15.30;13.70;;;;;;;17.61;74.46;101407.81;5060319;28;20199;-66
2022/07/04 02:26:26;;;;;;;17.97;14.17;;;;;;;17.19;75.75;101414.34;5060506;28;20174;-66
2022/07/04 02:28:52;;;;;;;14.50;13.10;;;;;;;17.37;75.84;101411.53;5059865;28;20520;-67
2022/07/04 02:31:18;;;;;;;15.10;13.60;;;;;;;17.38;75.47;101407.16;5060300;28;20170;-66
2022/07/04 02:33:43;;;;;;;14.20;12.90;;;;;;;17.10;75.92;101409.97;5060198;28;20491;-66
2022/07/04 02:36:08;;;;;;;14.03;12.63;;;;;;;17.19;75.84;101404.66;5060544;28;20170;-65
2022/07/04 02:38:34;;;;;;;12.80;11.60;;;;;;;17.08;75.97;101404.72;5060058;28;20568;-66
2022/07/04 02:40:59;;;;;;;12.27;11.07;;;;;;;17.35;75.76;101410.69;5060089;28;20193;-66
2022/07/04 02:43:24;;;;;;;13.93;12.30;;;;;;;17.56;74.42;101400.84;5060311;28;20173;-66
2022/07/04 02:45:50;;;;;;;14.37;12.33;;;;;;;17.46;74.72;101397.44;5060082;28;20178;-66
2022/07/04 02:48:15;;;;;;;14.03;12.73;;;;;;;17.16;75.96;101413.44;5059987;28;20170;-67
2022/07/04 02:50:40;;;;;;;15.20;13.77;;;;;;;17.08;76.83;101410.00;5060323;28;20176;-67
2022/07/04 02:53:06;;;;;;;14.00;12.70;;;;;;;17.29;76.34;101410.72;5059939;28;20191;-67
2022/07/04 02:55:31;;;;;;;13.90;12.60;;;;;;;17.49;75.15;101407.94;5059752;28;20181;-67
2022/07/04 02:57:57;;;;;;;15.20;13.80;;;;;;;17.49;75.32;101408.81;5059234;28;20217;-67
2022/07/04 03:00:23;;;;;;;16.77;15.37;;;;;;;16.94;76.69;101419.72;5059685;28;20210;-66
2022/07/04 03:02:48;;;;;;;17.60;16.10;;;;;;;17.14;77.25;101431.03;5059093;28;20772;-66
2022/07/04 03:05:13;;;;;;;16.70;15.20;;;;;;;16.92;77.45;101422.38;5059401;28;20404;-66
2022/07/04 03:07:39;;;;;;;16.83;15.20;;;;;;;17.08;76.71;101423.16;5059589;28;20188;-66
2022/07/04 03:10:04;;;;;;;16.67;14.97;;;;;;;17.00;76.78;101427.63;5058762;28;20213;-67
2022/07/04 03:12:30;;;;;;;16.97;15.43;;;;;;;17.05;76.40;101423.19;5059372;28;20562;-66
2022/07/04 03:14:55;;;;;;;18.87;17.10;;;;;;;16.90;77.69;101421.53;5059286;28;20193;-66
2022/07/04 03:17:21;;;;;;;19.07;17.37;;;;;;;17.05;76.87;101417.94;5059322;28;20264;-67
2022/07/04 03:19:46;;;;;;;17.67;16.00;;;;;;;17.24;76.26;101421.31;5059993;28;20165;-67
2022/07/04 03:22:12;;;;;;;19.90;18.10;;;;;;;16.99;76.71;101428.50;5059262;28;20176;-66
2022/07/04 03:24:37;;;;;;;20.13;18.30;;;;;;;17.25;75.65;101423.06;5059274;28;20535;-66
2022/07/04 03:27:03;;;;;;;19.80;17.53;;;;;;;17.19;75.91;101422.25;5058809;28;20158;-65
2022/07/04 03:29:28;;;;;;;19.60;17.03;;;;;;;17.32;75.62;101419.50;5059331;28;20174;-66
2022/07/04 03:31:53;;;;;;;20.33;18.00;;;;;;;17.28;75.52;101427.44;5059191;28;20223;-66
2022/07/04 03:34:19;;;;;;;19.77;17.67;;;;;;;17.55;74.58;101423.72;5059473;28;20248;-66
2022/07/04 03:36:44;;;;;;;19.70;17.80;;;;;;;16.98;75.45;101435.53;5058929;28;20174;-66
2022/07/04 03:39:09;;;;;;;18.40;16.60;;;;;;;17.19;75.09;101430.13;5059108;28;20493;-66
2022/07/04 03:41:36;;;;;;;19.70;17.37;;;;;;;17.45;75.06;101437.84;5059271;28;20158;-67
2022/07/04 03:44:01;;;;;;;17.70;15.97;;;;;;;17.99;73.42;101440.03;5058819;28;20269;-66
2022/07/04 03:46:27;;;;;;;16.70;15.03;;;;;;;18.57;70.21;101427.09;5058943;28;20419;-66
2022/07/04 03:48:53;;;;;;;16.70;14.93;;;;;;;19.00;68.03;101429.19;5059230;28;20166;-66
2022/07/04 03:51:18;;;;;;;16.00;14.40;;;;;;;19.29;67.19;101434.00;5058911;28;20169;-67
2022/07/04 03:53:44;;;;;;;14.33;13.03;;;;;;;19.79;65.18;101427.91;5058805;28;20495;-67
2022/07/04 03:56:09;;;;;;;15.33;12.70;;;;;;;19.92;64.68;101428.63;5059162;28;20188;-65
2022/07/04 03:58:34;;;;;;;14.10;12.70;;;;;;;20.47;62.24;101435.47;5058440;28;20248;-65
2022/07/04 04:01:00;;;;;;;13.30;12.20;;;;;;;20.74;61.25;101437.59;5058399;28;20173;-67
2022/07/04 04:06:09;;;;;;;14.37;13.07;;;;;;;21.48;57.79;101431.44;5058742;28;20368;-66
2022/07/04 04:08:35;;;;;;;12.93;11.53;;;;;;;22.00;57.47;101436.34;5058421;28;20499;-67
2022/07/04 04:11:00;;;;;;;11.23;10.33;;;;;;;21.64;58.43;101439.94;5058334;28;20200;-66
2022/07/04 04:13:25;;;;;;;12.10;11.10;;;;;;;22.29;56.35;101438.19;5057286;28;20276;-66
2022/07/04 04:15:51;;;;;;;11.97;10.73;;;;;;;21.70;57.66;101444.19;5058970;28;20166;-66
2022/07/04 04:18:16;;;;;;;11.73;10.73;;;;;;;21.92;57.05;101439.22;5057999;28;20253;-65
2022/07/04 04:20:41;;;;;;;11.70;10.50;;;;;;;22.01;56.58;101443.41;5058312;28;20170;-66
2022/07/04 04:23:07;;;;;;;11.07;10.17;;;;;;;22.86;54.90;101435.69;5058662;28;20615;-66
2022/07/04 04:25:32;;;;;;;10.60;9.60;;;;;;;22.70;54.73;101437.94;5058029;28;20181;-66
2022/07/04 04:27:58;;;;;;;10.50;9.60;;;;;;;23.38;52.95;101443.81;5058169;28;20173;-67
2022/07/04 04:30:23;;;;;;;11.03;10.20;;;;;;;22.64;53.88;101446.13;5058519;28;20554;-67
2022/07/04 04:32:48;;;;;;;10.73;9.23;;;;;;;22.10;54.49;101456.44;5057438;28;20174;-66
2022/07/04 04:35:14;;;;;;;9.50;8.70;;;;;;;22.76;53.01;101450.16;5057951;28;20197;-66
2022/07/04 04:37:39;;;;;;;10.97;9.87;;;;;;;23.30;51.38;101448.53;5058226;28;20189;-66
2022/07/04 04:40:05;;;;;;;10.47;9.37;;;;;;;22.40;53.47;101456.53;5058054;28;20161;-68
2022/07/04 04:42:30;;;;;;;10.30;9.40;;;;;;;23.70;50.06;101453.41;5058068;28;20165;-67
2022/07/04 04:44:56;;;;;;;10.40;9.40;;;;;;;24.19;49.10;101456.19;5058359;28;20676;-67
2022/07/04 04:47:21;;;;;;;8.77;8.07;;;;;;;24.58;47.85;101468.09;5057951;28;20192;-66
2022/07/04 04:49:47;;;;;;;11.00;7.80;;;;;;;24.20;48.88;101463.22;5057959;28;20173;-66
2022/07/04 04:52:12;;;;;;;9.53;8.50;;;;;;;24.98;47.39;101466.59;5058356;28;20180;-66
2022/07/04 04:54:38;;;;;;;9.10;8.20;;;;;;;25.11;46.17;101461.63;5058005;28;20486;-67
2022/07/04 04:57:04;;;;;;;8.93;8.03;;;;;;;24.93;46.80;101463.22;5058652;28;20542;-67
2022/07/04 04:59:30;;;;;;;8.07;7.37;;;;;;;24.23;48.27;101462.25;5044558;28;20232;-68
2022/07/04 05:01:57;;;;;;;8.17;7.57;;;;;;;25.26;45.65;101453.94;5036811;28;20405;-67
2022/07/04 05:04:22;;;;;;;8.10;7.40;;;;;;;25.35;45.96;101457.13;5037024;28;20216;-67
2022/07/04 05:06:47;;;;;;;8.37;7.37;;;;;;;25.42;45.33;101465.75;5038064;28;20413;-68
2022/07/04 05:09:13;;;;;;;9.00;7.10;;;;;;;24.63;46.52;101471.47;5049021;28;20444;-66
2022/07/04 05:11:38;;;;;;;7.17;6.47;;;;;;;25.12;45.56;101474.03;5057677;28;20173;-68
2022/07/04 05:14:04;;;;;;;7.63;6.87;;;;;;;25.30;44.58;101480.47;5057972;28;20213;-67
2022/07/04 05:16:29;;;;;;;6.20;5.60;;;;;;;24.89;45.41;101478.47;5057677;28;20223;-68
2022/07/04 05:18:54;;;;;;;6.97;6.27;;;;;;;25.25;44.94;101486.88;5057783;28;20331;-67
2022/07/04 05:21:20;;;;;;;7.23;5.97;;;;;;;24.82;45.80;101490.31;5057202;28;20602;-68
2022/07/04 05:23:45;;;;;;;6.70;6.03;;;;;;;25.11;45.42;101487.44;5057481;28;20174;-68
2022/07/04 05:26:10;;;;;;;6.50;5.80;;;;;;;25.41;44.82;101485.41;5061396;28;20248;-67
2022/07/04 05:28:36;;;;;;;5.97;5.47;;;;;;;25.75;43.69;101477.75;5061732;28;20524;-67
2022/07/04 05:31:01;;;;;;;5.27;4.67;;;;;;;25.94;43.19;101477.84;5054201;28;20419;-67
2022/07/04 05:33:27;;;;;;;5.10;4.70;;;;;;;25.71;43.21;101483.22;5040601;28;20174;-67
2022/07/04 05:35:52;;;;;;;5.40;4.40;;;;;;;26.08;41.79;101475.47;5041508;28;20162;-69
2022/07/04 05:38:18;;;;;;;4.40;4.00;;;;;;;26.08;42.03;101480.81;5040939;28;20210;-69
2022/07/04 05:40:43;;;;;;;4.90;4.40;;;;;;;26.62;40.75;101472.19;5040993;28;20432;-67
2022/07/04 05:43:10;;;;;;;4.67;4.27;;;;;;;26.27;41.31;101478.19;5041440;28;20173;-67
2022/07/04 05:45:35;;;;;;;4.23;3.83;;;;;;;25.98;42.41;101476.75;5041294;28;20194;-69
2022/07/04 05:48:01;;;;;;;6.17;4.80;;;;;;;26.59;41.13;101469.63;5053268;28;20904;-68
2022/07/04 05:50:26;;;;;;;4.43;4.10;;;;;;;27.06;39.82;101464.75;5063285;28;20435;-69
2022/07/04 05:52:51;;;;;;;4.93;3.80;;;;;;;27.62;38.39;101469.25;5062591;28;20249;-68
2022/07/04 05:55:17;;;;;;;4.30;3.70;;;;;;;27.15;39.37;101468.78;5060623;28;20184;-68
2022/07/04 05:57:42;;;;;;;4.17;3.83;;;;;;;26.96;39.81;101467.97;5061351;28;20555;-67
2022/07/04 06:00:08;;;;;;;4.00;3.40;;;;;;;26.89;39.48;101470.06;5060983;28;20197;-69
2022/07/04 06:02:34;;;;;;;4.07;3.67;;;;;;;28.35;37.58;101471.72;5044101;28;20194;-68
2022/07/04 06:04:59;;;;;;;5.80;3.93;;;;;;;27.49;38.46;101475.19;5053111;28;20223;-68
2022/07/04 06:07:24;;;;;;;3.93;3.40;;;;;;;27.85;37.89;101462.69;5054978;28;20277;-68
2022/07/04 06:09:50;;;;;;;4.93;3.50;;;;;;;27.67;38.35;101464.50;5050796;28;20566;-69
2022/07/04 06:12:15;;;;;;;5.63;3.50;;;;;;;27.78;38.53;101477.34;5058306;28;20192;-67
2022/07/04 06:14:41;;;;;;;3.60;2.87;;;;;;;28.29;37.45;101469.38;5051993;28;20228;-69
2022/07/04 06:17:06;;;;;;;3.57;3.07;;;;;;;27.27;39.35;101467.34;5059131;28;20469;-70
2022/07/04 06:19:32;;;;;;;5.17;3.53;;;;;;;29.06;35.54;101465.16;5059769;28;20543;-68
2022/07/04 06:21:57;;;;;;;4.67;3.10;;;;;;;29.11;35.95;101473.81;5059965;28;20180;-69
2022/07/04 06:24:22;;;;;;;3.10;2.80;;;;;;;28.48;36.31;101455.81;5059816;28;20181;-68
2022/07/04 06:26:48;;;;;;;3.80;3.17;;;;;;;28.40;36.42;101470.53;5059893;28;20176;-69
2022/07/04 06:29:13;;;;;;;6.27;3.13;;;;;;;27.99;37.82;101464.66;5060034;28;20421;-69
2022/07/04 06:31:39;;;;;;;7.73;3.30;;;;;;;27.18;38.67;101471.34;5060033;28;20177;-68
2022/07/04 06:36:48;;;;;;;4.10;3.10;;;;;;;28.66;36.04;101472.75;5054617;28;20283;-68
2022/07/04 06:39:13;;;;;;;4.23;3.30;;;;;;;28.75;35.63;101474.94;5052196;28;20550;-68
2022/07/04 06:41:38;;;;;;;4.30;3.27;;;;;;;28.21;35.93;101480.50;5050469;28;20201;-68
2022/07/04 06:44:04;;;;;;;3.70;2.80;;;;;;;28.72;34.97;101480.47;5057208;28;20195;-69
2022/07/04 06:46:30;;;;;;;3.63;3.10;;;;;;;28.83;35.23;101485.25;5052100;28;20202;-69
2022/07/04 06:48:55;;;;;;;3.60;3.30;;;;;;;27.87;36.39;101482.22;5056701;28;20182;-68
2022/07/04 06:51:20;;;;;;;3.13;2.80;;;;;;;29.35;33.85;101468.88;5057113;28;20170;-69
2022/07/04 06:53:46;;;;;;;4.70;3.50;;;;;;;27.80;36.98;101476.31;5058456;28;20256;-68
2022/07/04 06:56:12;;;;;;;4.00;3.20;;;;;;;29.60;33.92;101471.97;5058794;28;20189;-69
2022/07/04 06:58:37;;;;;;;4.30;3.10;;;;;;;28.32;35.45;101469.19;5058680;28;20201;-69
2022/07/04 07:01:03;;;;;;;4.13;2.83;;;;;;;27.02;37.92;101473.00;5059216;28;20179;-67
2022/07/04 07:03:28;;;;;;;3.90;3.30;;;;;;;27.00;37.88;101472.22;5056946;28;20192;-70
2022/07/04 07:05:56;;;;;;;4.40;3.20;;;;;;;28.40;35.81;101472.31;5053045;28;20189;-69
2022/07/04 07:08:21;;;;;;;3.97;3.00;;;;;;;28.62;35.04;101461.31;5060087;28;20451;-69
2022/07/04 07:10:47;;;;;;;2.67;2.47;;;;;;;28.30;35.16;101468.41;5059440;28;20440;-69
2022/07/04 07:13:12;;;;;;;4.20;2.80;;;;;;;26.03;39.36;101475.69;5057787;28;20203;-69
2022/07/04 07:15:37;;;;;;;3.93;2.97;;;;;;;25.46;39.58;101471.84;5059791;28;20173;-69
2022/07/04 07:18:03;;;;;;;3.07;2.77;;;;;;;25.03;41.59;101482.41;5059378;28;20225;-69
2022/07/04 07:20:29;;;;;;;3.63;2.80;;;;;;;25.25;41.24;101478.88;5057657;28;20259;-69
2022/07/04 07:22:54;;;;;;;3.20;2.87;;;;;;;24.46;42.66;101492.53;5058264;28;20187;-69
2022/07/04 07:25:19;;;;;;;4.33;3.00;;;;;;;24.74;41.64;101481.75;5058379;28;20260;-67
2022/07/04 07:27:45;;;;;;;5.43;3.17;;;;;;;27.19;37.16;101467.69;5045797;28;20206;-66
2022/07/04 07:30:11;;;;;;;5.07;2.83;;;;;;;25.87;39.97;101472.78;5038177;28;20427;-67
2022/07/04 07:32:36;;;;;;;4.73;2.90;;;;;;;26.41;38.74;101474.03;5048879;28;20201;-67
2022/07/04 07:35:02;;;;;;;3.13;2.83;;;;;;;27.88;36.09;101467.88;5055921;28;20205;-67
2022/07/04 07:37:27;;;;;;;3.00;2.50;;;;;;;29.19;34.02;101468.00;5058416;28;20184;-68
2022/07/04 07:39:53;;;;;;;3.77;3.03;;;;;;;29.60;32.75;101466.59;5049434;28;20201;-66
2022/07/04 07:42:18;;;;;;;2.30;2.10;;;;;;;28.54;34.27;101469.75;5056410;28;20256;-67
2022/07/04 07:44:46;;;;;;;5.23;3.10;;;;;;;30.07;32.07;101465.56;5045057;28;20182;-67
2022/07/04 07:47:12;;;;;;;3.93;2.80;;;;;;;27.94;35.95;101475.63;5055960;28;20173;-68
2022/07/04 07:49:37;;;;;;;2.77;2.57;;;;;;;27.52;35.31;101491.13;5049594;28;20440;-68
2022/07/04 07:52:03;;;;;;;3.47;2.70;;;;;;;27.97;34.66;101488.84;5056500;28;20738;-68
2022/07/04 07:54:28;;;;;;;3.70;3.40;;;;;;;28.83;33.81;101486.09;5047184;28;20257;-69
2022/07/04 07:56:54;;;;;;;2.93;2.60;;;;;;;27.45;35.47;101494.16;5057572;28;20182;-70
2022/07/04 07:59:19;;;;;;;6.77;2.70;;;;;;;26.59;36.95;101494.59;5057401;28;20173;-69
2022/07/04 08:01:44;;;;;;;4.63;2.80;;;;;;;26.52;36.89;101491.34;5046773;28;20217;-68
2022/07/04 08:06:54;;;;;;;3.63;3.17;;;;;;;28.33;34.13;101479.81;5056635;28;20188;-67
2022/07/04 08:09:19;;;;;;;4.70;3.10;;;;;;;30.99;30.53;101476.88;5057415;28;20428;-67
2022/07/04 08:11:44;;;;;;;3.10;2.63;;;;;;;30.26;31.55;101476.03;5057594;28;20174;-68
2022/07/04 08:14:10;;;;;;;3.87;2.90;;;;;;;29.62;33.14;101478.97;5049319;28;20190;-68
2022/07/04 08:16:35;;;;;;;4.03;2.80;;;;;;;27.11;36.93;101485.94;5051240;28;20181;-66
2022/07/04 08:19:03;;;;;;;2.90;2.67;;;;;;;27.37;35.87;101486.50;5050820;28;20557;-65
2022/07/04 08:21:28;;;;;;;3.77;2.77;;;;;;;27.93;34.68;101486.41;5056771;28;20260;-65
2022/07/04 08:23:54;;;;;;;3.07;2.50;;;;;;;28.41;33.90;101492.84;5057454;28;20527;-66
2022/07/04 08:26:19;;;;;;;3.23;2.50;;;;;;;27.56;34.68;101490.03;5057300;28;20184;-67
2022/07/04 08:28:45;;;;;;;4.53;2.30;;;;;;;28.69;32.44;101488.69;5057627;28;20177;-67
2022/07/04 08:31:10;;;;;;;3.00;2.63;;;;;;;27.09;35.40;101493.19;5057567;28;20188;-67
2022/07/04 08:33:36;;;;;;;4.70;3.30;;;;;;;29.15;32.39;101494.16;5057578;28;20272;-65
2022/07/04 08:36:01;;;;;;;5.00;2.80;;;;;;;30.10;32.12;101489.56;5054201;28;20186;-65
2022/07/04 08:38:27;;;;;;;3.40;2.23;;;;;;;29.77;31.59;101489.75;5056972;28;20441;-64
2022/07/04 08:40:57;;;;;;;3.50;2.40;;;;;;;29.55;32.22;101496.38;5057098;28;20177;-65
2022/07/04 08:43:23;;;;;;;5.97;2.47;;;;;;;28.33;32.96;101495.91;5056705;28;20173;-65
2022/07/04 08:45:49;;;;;;;4.37;2.60;;;;;;;25.64;37.27;101507.59;5057169;28;20408;-65
2022/07/04 08:48:15;;;;;;;5.20;2.70;;;;;;;26.72;36.21;101500.25;5053749;28;20807;-66
2022/07/04 08:50:47;;;;;;;4.00;2.53;;;;;;;27.08;35.74;101507.50;5050555;28;20577;-65
2022/07/04 08:53:18;;;;;;;3.90;3.00;;;;;;;27.62;34.05;101498.69;5048766;28;20428;-65
2022/07/04 08:58:29;;;;;;;6.30;3.30;;;;;;;29.16;31.84;101495.91;5047405;28;20509;-65
2022/07/04 09:01:00;;;;;;;3.47;2.60;;;;;;;29.26;31.78;101490.91;5059162;28;20432;-66
2022/07/04 09:03:27;;;;;;;3.57;2.50;;;;;;;28.18;33.09;101494.91;5060523;28;20437;-65
2022/07/04 09:05:53;;;;;;;3.27;2.40;;;;;;;29.37;31.44;101499.19;5059585;28;20453;-65
2022/07/04 09:08:19;;;;;;;3.23;2.57;;;;;;;28.86;32.18;101487.75;5049567;28;20409;-66
2022/07/04 09:10:44;;;;;;;2.70;2.50;;;;;;;29.34;31.52;101482.41;5048359;28;20434;-65
2022/07/04 09:13:11;;;;;;;3.10;2.50;;;;;;;28.82;32.37;101484.38;5061015;28;20252;-65
2022/07/04 09:15:36;;;;;;;2.90;2.37;;;;;;;30.19;31.44;101485.47;5054481;28;20181;-66
2022/07/04 09:18:02;;;;;;;3.67;2.83;;;;;;;28.04;33.21;101492.97;5062840;28;20744;-66
2022/07/04 09:20:30;;;;;;;4.90;3.30;;;;;;;28.38;32.53;101487.66;5056239;28;20551;-65
2022/07/04 09:22:56;;;;;;;2.80;2.60;;;;;;;28.46;33.12;101489.91;5051669;28;20424;-65
2022/07/04 09:25:24;;;;;;;2.97;2.67;;;;;;;28.16;33.26;101480.75;5058857;28;20455;-65
2022/07/04 09:27:51;;;;;;;5.27;2.70;;;;;;;26.81;35.40;101483.78;5056948;28;20173;-66
2022/07/04 09:30:19;;;;;;;3.93;2.60;;;;;;;25.82;37.42;101496.13;5044448;28;20427;-65
2022/07/04 09:32:46;;;;;;;2.60;2.40;;;;;;;25.42;38.22;101494.25;5059781;28;20947;-64
2022/07/04 09:35:17;;;;;;;3.90;2.93;;;;;;;26.88;35.24;101484.38;5059666;28;20420;-66
2022/07/04 09:37:45;;;;;;;3.20;2.37;;;;;;;29.06;32.46;101481.25;5058556;28;21182;-66
2022/07/04 09:40:24;;;;;;;4.80;2.57;;;;;;;29.13;32.14;101479.09;5055059;28;20443;-65
2022/07/04 09:42:50;;;;;;;5.37;2.80;;;;;;;29.94;30.81;101472.66;5058866;28;20709;-65
2022/07/04 09:45:16;;;;;;;4.20;2.60;;;;;;;28.90;32.29;101482.13;5058996;28;20424;-65
2022/07/04 09:47:44;;;;;;;3.13;2.43;;;;;;;29.73;30.80;101473.81;5059553;28;20499;-65
2022/07/04 09:50:16;;;;;;;2.60;2.20;;;;;;;28.99;32.29;101466.47;5059059;28;20272;-64
2022/07/04 09:53:01;;;;;;;3.20;2.70;;;;;;;30.18;30.72;101467.59;5059719;28;20422;-65
2022/07/04 09:55:34;;;;;;;3.17;2.17;;;;;;;29.74;31.46;101471.97;5058890;28;20464;-67
2022/07/04 09:58:06;;;;;;;3.50;2.63;;;;;;;29.69;31.48;101471.41;5060259;28;20597;-65
2022/07/04 10:00:34;;;;;;;4.30;2.70;;;;;;;29.77;31.25;101463.75;5060179;28;20481;-65
2022/07/04 10:03:20;;;;;;;3.27;2.43;;;;;;;26.71;35.29;101478.00;5060181;28;20416;-65
2022/07/04 10:05:47;;;;;;;5.50;2.70;;;;;;;28.06;33.42;101466.09;5060374;28;20503;-65
2022/07/04 10:08:12;;;;;;;2.97;2.40;;;;;;;30.69;30.29;101457.22;5060076;28;20421;-66
2022/07/04 10:10:39;;;;;;;2.67;2.47;;;;;;;29.56;30.21;101473.94;5060130;28;20412;-66
2022/07/04 10:13:10;;;;;;;2.43;2.23;;;;;;;30.49;28.91;101463.88;5060533;28;20169;-66
2022/07/04 10:15:41;;;;;;;2.87;2.40;;;;;;;29.98;29.81;101468.81;5059681;28;20431;-67
2022/07/04 10:18:07;;;;;;;2.23;2.03;;;;;;;30.60;29.66;101465.03;5060047;28;20892;-66
2022/07/04 10:20:35;;;;;;;4.73;2.70;;;;;;;31.36;28.00;101469.09;5060153;28;20440;-66
2022/07/04 10:23:01;;;;;;;5.37;2.90;;;;;;;29.03;30.60;101473.38;5060322;28;20436;-67
2022/07/04 10:25:27;;;;;;;2.53;2.10;;;;;;;29.59;29.95;101470.22;5060167;28;20428;-65
2022/07/04 10:27:52;;;;;;;2.90;2.60;;;;;;;29.09;31.04;101467.66;5060194;28;20677;-66
2022/07/04 10:30:39;;;;;;;3.50;3.10;;;;;;;27.12;33.99;101476.97;5060284;28;20174;-65
2022/07/04 10:33:07;;;;;;;3.70;2.40;;;;;;;26.94;34.79;101477.84;5059030;28;20562;-65
2022/07/04 10:36:01;;;;;;;3.17;2.43;;;;;;;25.72;36.58;101484.09;5059168;28;20416;-66
2022/07/04 10:38:34;;;;;;;2.87;2.23;;;;;;;25.41;37.55;101476.50;5059726;28;20467;-68
2022/07/04 10:41:05;;;;;;;2.40;2.20;;;;;;;26.33;36.38;101463.69;5059996;28;20424;-66
2022/07/04 10:46:25;;;;;;;4.90;2.20;;;;;;;27.06;34.29;101458.53;5059764;28;20485;-66
2022/07/04 10:48:55;;;;;;;3.87;2.40;;;;;;;28.90;31.30;101451.72;5059144;28;20860;-66
2022/07/04 10:51:34;;;;;;;3.50;2.10;;;;;;;29.38;30.77;101454.41;5059766;28;20408;-65
2022/07/04 10:54:02;;;;;;;4.87;4.20;;;;;;;30.51;29.06;101448.50;5059499;28;20832;-65
2022/07/04 10:56:27;;;;;;;3.63;2.50;;;;;;;30.45;28.80;101445.34;5059619;28;20495;-66
2022/07/04 10:58:54;;;;;;;2.53;2.30;;;;;;;29.95;29.62;101439.44;5059269;28;20546;-66
2022/07/04 11:01:19;;;;;;;2.50;2.10;;;;;;;29.08;31.04;101444.47;5059386;28;20219;-66
2022/07/04 11:03:50;;;;;;;12.17;6.60;;;;;;;26.51;35.07;101449.47;5059713;28;20400;-66
2022/07/04 11:06:37;;;;;;;2.23;2.03;;;;;;;28.64;31.91;101454.06;5059565;28;20214;-66
2022/07/04 11:09:12;;;;;;;3.80;2.57;;;;;;;28.16;32.69;101445.03;5059352;28;20420;-66
2022/07/04 11:12:07;;;;;;;3.10;2.20;;;;;;;27.73;32.98;101446.28;5059330;28;20411;-65
2022/07/04 11:14:43;;;;;;;2.57;2.37;;;;;;;27.36;33.71;101449.94;5046092;28;20443;-65
2022/07/04 11:17:32;;;;;;;5.53;2.40;;;;;;;26.33;34.87;101445.84;5059186;28;20726;-65
2022/07/04 11:20:03;;;;;;;3.40;2.50;;;;;;;25.56;36.51;101454.53;5059315;28;20432;-65
2022/07/04 11:22:29;;;;;;;4.00;2.50;;;;;;;25.53;37.28;101455.50;5057925;28;20424;-65
2022/07/04 11:24:55;;;;;;;2.60;2.40;;;;;;;25.14;38.08;101455.28;5058609;28;20408;-65
2022/07/04 11:27:22;;;;;;;7.70;2.70;;;;;;;25.13;37.64;101453.59;5059496;28;20675;-65
2022/07/04 11:29:53;;;;;;;4.37;2.40;;;;;;;25.20;37.69;101445.25;5058974;28;20173;-64
2022/07/04 11:32:20;;;;;;;3.07;2.77;;;;;;;25.32;37.66;101459.03;5058909;28;20451;-64
2022/07/04 11:34:46;;;;;;;3.23;2.93;;;;;;;25.46;37.62;101451.34;5058950;28;20404;-64
2022/07/04 11:37:12;;;;;;;2.33;2.13;;;;;;;26.39;36.25;101442.88;5058801;28;20506;-64